Time;durP1;ratioP1;P1;durP2;ratioP2;P2;SDS_P1;SDS_P2;PMS_P1;PMS_P2;Temp;Humidity;BMP_temperature;BMP_pressure;BME280_temperature;BME280_humidity;BME280_pressure;Samples;Min_cycle;Max_cycle;Signal;HPM_P1;HPM_P2
2022/09/09 00:00:43;;;;;;;3.37;2.20;;;;;;;;;;5063401;28;20991;-76
2022/09/09 00:03:13;;;;;;;3.20;2.13;;;;;;;;;;5071187;28;20429;-76
2022/09/09 00:05:39;;;;;;;3.23;1.90;;;;;;;;;;5054627;28;20940;-76
2022/09/09 00:08:14;;;;;;;6.53;2.23;;;;;;;;;;5074342;28;20440;-75
2022/09/09 00:10:41;;;;;;;2.60;1.80;;;;;;;;;;5091284;28;20554;-76
2022/09/09 00:13:20;;;;;;;4.80;2.27;;;;;;;;;;5066336;28;20431;-75
2022/09/09 00:15:52;;;;;;;3.83;2.27;;;;;;;;;;5087023;28;20447;-76
2022/09/09 00:18:25;;;;;;;2.30;1.80;;;;;;;;;;5092032;28;20491;-76
2022/09/09 00:21:10;;;;;;;7.83;3.30;;;;;;;;;;5087037;28;20547;-75
2022/09/09 00:23:43;;;;;;;3.40;2.23;;;;;;;;;;5053839;28;20440;-76
2022/09/09 00:26:09;;;;;;;7.07;2.43;;;;;;;;;;5080141;28;20420;-76
2022/09/09 00:28:39;;;;;;;6.00;2.37;;;;;;;;;;5076770;28;20436;-75
2022/09/09 00:31:12;;;;;;;4.00;2.33;;;;;;;;;;5070198;28;20568;-76
2022/09/09 00:33:40;;;;;;;6.60;2.63;;;;;;;;;;5070114;28;20464;-76
2022/09/09 00:36:10;;;;;;;8.67;3.27;;;;;;;;;;5063360;28;20450;-76
2022/09/09 00:38:41;;;;;;;3.47;2.10;;;;;;;;;;5073709;28;20492;-76
2022/09/09 00:41:10;;;;;;;4.80;2.33;;;;;;;;;;5070544;28;20449;-76
2022/09/09 00:43:39;;;;;;;3.33;2.40;;;;;;;;;;5082310;28;20455;-76
2022/09/09 00:46:14;;;;;;;5.73;2.53;;;;;;;;;;5050334;28;20449;-76
2022/09/09 00:48:41;;;;;;;5.83;2.33;;;;;;;;;;5070179;28;20966;-76
2022/09/09 00:51:27;;;;;;;3.77;1.73;;;;;;;;;;5073155;28;20467;-75
2022/09/09 00:53:54;;;;;;;1.80;1.70;;;;;;;;;;5030375;28;20445;-76
2022/09/09 00:56:25;;;;;;;3.00;2.13;;;;;;;;;;5055706;28;20443;-76
2022/09/09 00:59:00;;;;;;;4.13;1.70;;;;;;;;;;5059522;28;20441;-76
2022/09/09 01:01:26;;;;;;;10.23;2.10;;;;;;;;;;5049926;28;20456;-75
2022/09/09 01:03:54;;;;;;;3.87;1.80;;;;;;;;;;5069948;28;20963;-75
2022/09/09 01:06:26;;;;;;;4.47;2.13;;;;;;;;;;5069833;28;20443;-75
2022/09/09 01:09:07;;;;;;;4.10;1.57;;;;;;;;;;5071184;28;20448;-75
2022/09/09 01:11:40;;;;;;;4.70;2.03;;;;;;;;;;5053115;28;20456;-75
2022/09/09 01:14:16;;;;;;;1.93;1.60;;;;;;;;;;5072180;28;20432;-75
2022/09/09 01:16:42;;;;;;;1.90;1.60;;;;;;;;;;5089869;28;20435;-75
2022/09/09 01:19:15;;;;;;;1.50;1.40;;;;;;;;;;5069357;28;20472;-75
2022/09/09 01:21:47;;;;;;;1.67;1.40;;;;;;;;;;5071060;28;20440;-75
2022/09/09 01:24:15;;;;;;;2.60;1.70;;;;;;;;;;5072330;28;20527;-75
2022/09/09 01:27:08;;;;;;;3.00;1.87;;;;;;;;;;5089824;28;20520;-76
2022/09/09 01:29:35;;;;;;;4.00;2.40;;;;;;;;;;5080628;28;20886;-75
2022/09/09 01:32:22;;;;;;;1.93;1.57;;;;;;;;;;5076007;28;20478;-75
2022/09/09 01:34:49;;;;;;;2.00;1.80;;;;;;;;;;5077287;28;20433;-75
2022/09/09 01:37:16;;;;;;;4.33;2.13;;;;;;;;;;5069257;28;20562;-75
2022/09/09 01:39:44;;;;;;;2.63;2.07;;;;;;;;;;5052854;28;20432;-75
2022/09/09 01:42:15;;;;;;;2.50;2.20;;;;;;;;;;5069314;28;20440;-75
2022/09/09 01:44:42;;;;;;;1.90;1.50;;;;;;;;;;5055867;28;20870;-75
2022/09/09 01:47:09;;;;;;;2.80;1.77;;;;;;;;;;5049487;28;20445;-75
2022/09/09 01:49:51;;;;;;;2.60;2.37;;;;;;;;;;5065534;28;20558;-75
2022/09/09 01:52:23;;;;;;;6.67;2.20;;;;;;;;;;5069826;28;20429;-75
2022/09/09 01:54:50;;;;;;;3.50;2.40;;;;;;;;;;5052616;28;20513;-75
2022/09/09 01:57:46;;;;;;;4.50;2.13;;;;;;;;;;5053144;28;20514;-75
2022/09/09 02:00:13;;;;;;;6.80;2.10;;;;;;;;;;5038541;28;20448;-75
2022/09/09 02:02:59;;;;;;;3.73;1.80;;;;;;;;;;5084411;28;20469;-75
2022/09/09 02:05:39;;;;;;;1.93;1.60;;;;;;;;;;5055572;28;20424;-75
2022/09/09 02:08:19;;;;;;;2.90;2.00;;;;;;;;;;5093103;28;20446;-75
2022/09/09 02:11:05;;;;;;;4.00;2.17;;;;;;;;;;5076824;28;20475;-75
2022/09/09 02:13:39;;;;;;;5.77;2.10;;;;;;;;;;5073068;28;20413;-75
2022/09/09 02:16:27;;;;;;;2.43;2.23;;;;;;;;;;5069961;28;20438;-75
2022/09/09 02:18:57;;;;;;;8.60;2.00;;;;;;;;;;5086688;28;20505;-75
2022/09/09 02:21:35;;;;;;;3.43;2.47;;;;;;;;;;5092802;28;20889;-75
2022/09/09 02:24:04;;;;;;;14.37;2.83;;;;;;;;;;5075350;28;20936;-75
2022/09/09 02:26:35;;;;;;;2.13;1.90;;;;;;;;;;5072546;28;20952;-75
2022/09/09 02:29:07;;;;;;;2.00;1.70;;;;;;;;;;5059060;28;20436;-75
2022/09/09 02:31:35;;;;;;;5.00;2.50;;;;;;;;;;5076839;28;20477;-75
2022/09/09 02:34:07;;;;;;;1.80;1.70;;;;;;;;;;5059543;28;20508;-75
2022/09/09 02:36:35;;;;;;;3.00;2.10;;;;;;;;;;5072412;28;20437;-75
2022/09/09 02:39:02;;;;;;;4.80;2.50;;;;;;;;;;5052481;28;20970;-75
2022/09/09 02:41:33;;;;;;;4.90;2.20;;;;;;;;;;5053776;28;20853;-75
2022/09/09 02:44:00;;;;;;;5.87;2.83;;;;;;;;;;5072114;28;20439;-75
2022/09/09 02:46:36;;;;;;;3.67;2.20;;;;;;;;;;5072076;28;20494;-75
2022/09/09 02:49:06;;;;;;;3.83;1.57;;;;;;;;;;5079340;28;20864;-75
2022/09/09 02:51:43;;;;;;;3.47;2.57;;;;;;;;;;5066328;28;20578;-75
2022/09/09 02:54:14;;;;;;;5.83;2.40;;;;;;;;;;5064079;28;20447;-75
2022/09/09 02:56:43;;;;;;;1.90;1.80;;;;;;;;;;5071964;28;20427;-75
2022/09/09 02:59:11;;;;;;;3.60;2.10;;;;;;;;;;5075800;28;20552;-75
2022/09/09 03:01:39;;;;;;;4.33;1.93;;;;;;;;;;5071356;28;20987;-75
2022/09/09 03:04:06;;;;;;;2.37;2.17;;;;;;;;;;5085460;28;20434;-75
2022/09/09 03:06:33;;;;;;;3.40;2.40;;;;;;;;;;5061730;28;20443;-75
2022/09/09 03:09:10;;;;;;;4.53;1.83;;;;;;;;;;5075405;28;20436;-75
2022/09/09 03:11:38;;;;;;;3.67;2.90;;;;;;;;;;5063469;28;20483;-75
2022/09/09 03:14:05;;;;;;;3.20;2.17;;;;;;;;;;5091877;28;20950;-75
2022/09/09 03:16:34;;;;;;;2.80;2.43;;;;;;;;;;5081976;28;20439;-75
2022/09/09 03:19:01;;;;;;;8.50;2.27;;;;;;;;;;5068211;28;20570;-75
2022/09/09 03:21:28;;;;;;;7.07;2.23;;;;;;;;;;5051708;28;20484;-75
2022/09/09 03:23:54;;;;;;;2.80;1.93;;;;;;;;;;5067518;28;21072;-75
2022/09/09 03:26:21;;;;;;;3.30;2.30;;;;;;;;;;5072580;28;20515;-75
2022/09/09 03:28:49;;;;;;;5.00;2.80;;;;;;;;;;5055672;28;20436;-75
2022/09/09 03:31:18;;;;;;;6.67;2.20;;;;;;;;;;5051320;28;21052;-76
2022/09/09 03:33:44;;;;;;;3.07;1.87;;;;;;;;;;5071130;28;20468;-75
2022/09/09 03:36:14;;;;;;;2.37;2.17;;;;;;;;;;5071790;28;20441;-75
2022/09/09 03:38:41;;;;;;;3.03;2.20;;;;;;;;;;5071683;28;20460;-76
2022/09/09 03:41:08;;;;;;;4.60;2.60;;;;;;;;;;5071683;28;20456;-76
2022/09/09 03:43:37;;;;;;;2.47;2.27;;;;;;;;;;5071628;28;20436;-76
2022/09/09 03:46:04;;;;;;;3.83;2.40;;;;;;;;;;5071741;28;20540;-76
2022/09/09 03:48:30;;;;;;;2.70;2.50;;;;;;;;;;5069460;28;20668;-76
2022/09/09 03:51:00;;;;;;;3.70;2.17;;;;;;;;;;5064227;28;20824;-76
2022/09/09 03:53:28;;;;;;;3.30;2.43;;;;;;;;;;5085429;28;20452;-76
2022/09/09 03:55:59;;;;;;;3.10;2.90;;;;;;;;;;5058110;28;20933;-76
2022/09/09 03:58:26;;;;;;;4.87;2.83;;;;;;;;;;5070736;28;20456;-76
2022/09/09 04:00:59;;;;;;;11.53;2.37;;;;;;;;;;5052515;28;20465;-76
2022/09/09 04:03:26;;;;;;;3.50;1.87;;;;;;;;;;5063065;28;20456;-75
2022/09/09 04:05:55;;;;;;;2.40;2.20;;;;;;;;;;5070641;28;21176;-75
2022/09/09 04:08:25;;;;;;;2.20;2.00;;;;;;;;;;5091124;28;20845;-76
2022/09/09 04:10:52;;;;;;;3.43;1.90;;;;;;;;;;5057529;28;20468;-76
2022/09/09 04:13:20;;;;;;;5.50;2.10;;;;;;;;;;5087568;28;20452;-76
2022/09/09 04:15:50;;;;;;;2.53;2.33;;;;;;;;;;5087648;28;20436;-75
2022/09/09 04:18:17;;;;;;;2.30;2.10;;;;;;;;;;5070446;28;20551;-76
2022/09/09 04:20:50;;;;;;;3.20;2.60;;;;;;;;;;5053851;28;20547;-76
2022/09/09 04:23:20;;;;;;;4.93;2.60;;;;;;;;;;5070546;28;20487;-76
2022/09/09 04:25:47;;;;;;;2.90;2.70;;;;;;;;;;5069695;28;20430;-75
2022/09/09 04:28:15;;;;;;;2.93;2.33;;;;;;;;;;5061242;28;20952;-75
2022/09/09 04:30:42;;;;;;;2.53;2.33;;;;;;;;;;5053984;28;20472;-76
2022/09/09 04:33:09;;;;;;;7.53;2.47;;;;;;;;;;5082274;28;20446;-76
2022/09/09 04:35:37;;;;;;;2.83;2.00;;;;;;;;;;5086803;28;20429;-76
2022/09/09 04:38:04;;;;;;;2.53;1.90;;;;;;;;;;5070565;28;20463;-76
2022/09/09 04:40:32;;;;;;;4.00;2.47;;;;;;;;;;5067878;28;20469;-75
2022/09/09 04:43:00;;;;;;;9.40;3.00;;;;;;;;;;5062764;28;20475;-75
2022/09/09 04:45:27;;;;;;;9.37;4.37;;;;;;;;;;5087072;28;20435;-75
2022/09/09 04:47:53;;;;;;;4.80;2.23;;;;;;;;;;5070401;28;20532;-75
2022/09/09 04:50:21;;;;;;;7.80;5.50;;;;;;;;;;5070096;28;20452;-76
2022/09/09 04:52:59;;;;;;;5.43;4.60;;;;;;;;;;5068962;28;20408;-76
2022/09/09 04:55:27;;;;;;;4.83;3.90;;;;;;;;;;5059452;28;20432;-76
2022/09/09 04:57:53;;;;;;;7.30;4.87;;;;;;;;;;5070059;28;20459;-76
2022/09/09 05:00:20;;;;;;;9.37;6.10;;;;;;;;;;5070238;28;20573;-76
2022/09/09 05:02:48;;;;;;;10.03;6.80;;;;;;;;;;5050357;28;20995;-76
2022/09/09 05:05:15;;;;;;;9.73;8.70;;;;;;;;;;5059871;28;20428;-76
2022/09/09 05:07:41;;;;;;;10.87;9.80;;;;;;;;;;5056910;28;20465;-76
2022/09/09 05:10:08;;;;;;;10.93;8.23;;;;;;;;;;5080274;28;20460;-76
2022/09/09 05:12:34;;;;;;;21.07;9.97;;;;;;;;;;5071180;28;20861;-76
2022/09/09 05:15:01;;;;;;;15.43;11.10;;;;;;;;;;5053241;28;20448;-76
2022/09/09 05:17:28;;;;;;;11.03;9.97;;;;;;;;;;5053300;28;20493;-76
2022/09/09 05:19:55;;;;;;;10.13;9.13;;;;;;;;;;5070908;28;20482;-76
2022/09/09 05:22:22;;;;;;;13.57;11.23;;;;;;;;;;5072766;28;20450;-74
2022/09/09 05:24:52;;;;;;;11.37;10.30;;;;;;;;;;5058548;28;20968;-74
2022/09/09 05:27:19;;;;;;;9.20;8.20;;;;;;;;;;5086483;28;20467;-74
2022/09/09 05:29:47;;;;;;;9.70;8.80;;;;;;;;;;5090009;28;20626;-74
2022/09/09 05:32:16;;;;;;;10.80;9.37;;;;;;;;;;5084768;28;20535;-75
2022/09/09 05:34:46;;;;;;;10.07;9.07;;;;;;;;;;5070065;28;20421;-74
2022/09/09 05:37:13;;;;;;;10.80;9.80;;;;;;;;;;5069776;28;20954;-74
2022/09/09 05:39:40;;;;;;;10.23;9.23;;;;;;;;;;5069813;28;20456;-74
2022/09/09 05:42:06;;;;;;;11.07;9.97;;;;;;;;;;5093767;28;20475;-74
2022/09/09 05:44:33;;;;;;;11.10;9.97;;;;;;;;;;5093862;28;20435;-74
2022/09/09 05:47:00;;;;;;;10.40;9.37;;;;;;;;;;5057619;28;20558;-74
2022/09/09 05:49:27;;;;;;;12.10;10.90;;;;;;;;;;5073672;28;20486;-74
2022/09/09 05:51:54;;;;;;;12.10;10.47;;;;;;;;;;5073214;28;20432;-73
2022/09/09 05:54:22;;;;;;;11.00;10.03;;;;;;;;;;5043827;28;20514;-74
2022/09/09 05:56:52;;;;;;;11.60;10.57;;;;;;;;;;5093483;28;20431;-74
2022/09/09 05:59:19;;;;;;;11.07;9.97;;;;;;;;;;5092589;28;20486;-76
2022/09/09 06:01:45;;;;;;;10.20;9.20;;;;;;;;;;5082692;28;20477;-76
2022/09/09 06:04:24;;;;;;;10.77;9.60;;;;;;;;;;5074034;28;20412;-76
2022/09/09 06:06:50;;;;;;;11.00;9.40;;;;;;;;;;5066781;28;20435;-76
2022/09/09 06:09:19;;;;;;;11.23;10.10;;;;;;;;;;5093455;28;20873;-74
2022/09/09 06:11:46;;;;;;;10.77;9.70;;;;;;;;;;5093403;28;20460;-74
2022/09/09 06:14:14;;;;;;;11.63;10.20;;;;;;;;;;5072915;28;20531;-75
2022/09/09 06:16:44;;;;;;;11.87;10.67;;;;;;;;;;5057206;28;20562;-74
2022/09/09 06:19:20;;;;;;;14.00;12.50;;;;;;;;;;5073005;28;20486;-74
2022/09/09 06:21:48;;;;;;;12.30;11.20;;;;;;;;;;5073079;28;20459;-74
2022/09/09 06:24:17;;;;;;;12.00;10.77;;;;;;;;;;5056637;28;20429;-76
2022/09/09 06:26:43;;;;;;;12.93;11.63;;;;;;;;;;5073059;28;20436;-76
2022/09/09 06:29:12;;;;;;;16.63;12.70;;;;;;;;;;5056957;28;20501;-76
2022/09/09 06:31:41;;;;;;;16.03;13.83;;;;;;;;;;5056758;28;20445;-76
2022/09/09 06:34:35;;;;;;;18.33;16.43;;;;;;;;;;5082053;28;20443;-76
2022/09/09 06:37:02;;;;;;;15.73;14.13;;;;;;;;;;5058808;28;20439;-76
2022/09/09 06:39:35;;;;;;;15.97;12.80;;;;;;;;;;5057289;28;20547;-76
2022/09/09 06:42:02;;;;;;;15.47;13.53;;;;;;;;;;5073264;28;20436;-77
2022/09/09 06:44:53;;;;;;;13.93;11.53;;;;;;;;;;5072903;28;20452;-76
2022/09/09 06:47:28;;;;;;;16.20;12.60;;;;;;;;;;5063066;28;20457;-74
2022/09/09 06:49:56;;;;;;;14.20;12.27;;;;;;;;;;5086913;28;20653;-74
2022/09/09 06:52:24;;;;;;;14.33;12.83;;;;;;;;;;5093034;28;20424;-75
2022/09/09 06:54:53;;;;;;;14.77;11.20;;;;;;;;;;5079423;28;20580;-75
2022/09/09 06:57:20;;;;;;;20.77;15.00;;;;;;;;;;5093137;28;20552;-76
2022/09/09 07:00:04;;;;;;;19.87;14.37;;;;;;;;;;5072573;28;20472;-76
2022/09/09 07:02:31;;;;;;;16.73;14.30;;;;;;;;;;5042744;28;20437;-74
2022/09/09 07:04:58;;;;;;;13.73;12.20;;;;;;;;;;5092896;28;20436;-74
2022/09/09 07:07:25;;;;;;;16.70;13.23;;;;;;;;;;5075386;28;20440;-76
2022/09/09 07:09:51;;;;;;;16.27;12.30;;;;;;;;;;5074052;28;20510;-75
2022/09/09 07:12:18;;;;;;;18.40;13.00;;;;;;;;;;5072891;28;20472;-75
2022/09/09 07:14:52;;;;;;;14.10;12.80;;;;;;;;;;5072720;28;20432;-75
2022/09/09 07:17:19;;;;;;;14.77;13.27;;;;;;;;;;5058634;28;20960;-76
2022/09/09 07:19:45;;;;;;;13.33;12.00;;;;;;;;;;5071899;28;20840;-76
2022/09/09 07:22:14;;;;;;;14.93;13.40;;;;;;;;;;5061036;28;20453;-76
2022/09/09 07:24:41;;;;;;;13.43;12.13;;;;;;;;;;5082836;28;20460;-75
2022/09/09 07:27:08;;;;;;;13.63;12.03;;;;;;;;;;5076209;28;20451;-75
2022/09/09 07:29:35;;;;;;;12.77;11.47;;;;;;;;;;5092083;28;20829;-74
2022/09/09 07:32:04;;;;;;;14.10;12.77;;;;;;;;;;5092966;28;20447;-74
2022/09/09 07:34:34;;;;;;;15.50;12.50;;;;;;;;;;5076715;28;20485;-74
2022/09/09 07:37:01;;;;;;;13.50;11.80;;;;;;;;;;5093354;28;20454;-74
2022/09/09 07:39:29;;;;;;;14.43;11.57;;;;;;;;;;5075144;28;20471;-74
2022/09/09 07:41:55;;;;;;;14.57;13.07;;;;;;;;;;5091996;28;20796;-75
2022/09/09 07:44:24;;;;;;;15.17;13.00;;;;;;;;;;5092144;28;20432;-74
2022/09/09 07:47:02;;;;;;;15.70;12.97;;;;;;;;;;5071872;28;20450;-74
2022/09/09 07:49:34;;;;;;;15.23;13.07;;;;;;;;;;5071312;28;20439;-75
2022/09/09 07:52:06;;;;;;;14.77;13.20;;;;;;;;;;5071562;28;20443;-75
2022/09/09 07:54:40;;;;;;;14.87;13.30;;;;;;;;;;5058085;28;21011;-75
2022/09/09 07:57:06;;;;;;;14.17;12.57;;;;;;;;;;5062662;28;20939;-74
2022/09/09 07:59:35;;;;;;;17.57;13.47;;;;;;;;;;5083925;28;20472;-75
2022/09/09 08:02:02;;;;;;;17.33;14.13;;;;;;;;;;5091638;28;20885;-76
2022/09/09 08:04:31;;;;;;;18.13;16.30;;;;;;;;;;5074915;28;20523;-76
2022/09/09 08:06:59;;;;;;;15.53;13.23;;;;;;;;;;5072456;28;20440;-76
2022/09/09 08:09:32;;;;;;;14.40;12.77;;;;;;;;;;5058568;28;20459;-75
2022/09/09 08:12:19;;;;;;;15.63;12.83;;;;;;;;;;5072855;28;20448;-76
2022/09/09 08:14:45;;;;;;;15.83;13.77;;;;;;;;;;5054473;28;20905;-76
2022/09/09 08:17:12;;;;;;;15.07;13.67;;;;;;;;;;5071778;28;20467;-76
2022/09/09 08:19:38;;;;;;;15.50;13.90;;;;;;;;;;5054665;28;20976;-76
2022/09/09 08:22:10;;;;;;;12.90;11.53;;;;;;;;;;5088004;28;20852;-76
2022/09/09 08:24:39;;;;;;;15.83;12.70;;;;;;;;;;5091320;28;20444;-74
2022/09/09 08:27:06;;;;;;;14.60;12.40;;;;;;;;;;5091117;28;20477;-74
2022/09/09 08:29:33;;;;;;;14.17;12.77;;;;;;;;;;5090732;28;20464;-76
2022/09/09 08:32:01;;;;;;;13.43;11.90;;;;;;;;;;5077275;28;20485;-77
2022/09/09 08:34:30;;;;;;;11.53;10.33;;;;;;;;;;5091022;28;20955;-76
2022/09/09 08:36:59;;;;;;;10.93;8.37;;;;;;;;;;5090651;28;20467;-76
2022/09/09 08:39:34;;;;;;;10.00;9.10;;;;;;;;;;5074961;28;20470;-75
2022/09/09 08:42:00;;;;;;;12.17;10.87;;;;;;;;;;5072114;28;20510;-74
2022/09/09 08:44:29;;;;;;;14.40;9.70;;;;;;;;;;5070451;28;20437;-75
2022/09/09 08:46:58;;;;;;;12.40;11.20;;;;;;;;;;5058470;28;20868;-75
2022/09/09 08:49:28;;;;;;;11.77;10.77;;;;;;;;;;5041410;28;20444;-76
2022/09/09 08:51:57;;;;;;;12.03;10.90;;;;;;;;;;5083918;28;20437;-76
2022/09/09 08:54:26;;;;;;;11.57;10.40;;;;;;;;;;5070294;28;20475;-75
2022/09/09 08:57:28;;;;;;;11.67;10.57;;;;;;;;;;5066888;28;20449;-75
2022/09/09 08:59:55;;;;;;;10.47;9.47;;;;;;;;;;5086997;28;20928;-75
2022/09/09 09:02:38;;;;;;;9.07;8.27;;;;;;;;;;5091336;28;20478;-75
2022/09/09 09:05:14;;;;;;;13.33;7.10;;;;;;;;;;5091153;28;20435;-76
2022/09/09 09:07:45;;;;;;;6.23;5.73;;;;;;;;;;5088369;28;20427;-76
2022/09/09 09:10:20;;;;;;;6.70;6.10;;;;;;;;;;5069898;28;20563;-75
2022/09/09 09:13:15;;;;;;;7.30;5.90;;;;;;;;;;5056408;28;20440;-76
2022/09/09 09:15:44;;;;;;;6.30;5.70;;;;;;;;;;5055663;28;20545;-76
2022/09/09 09:18:12;;;;;;;5.93;5.43;;;;;;;;;;5054508;28;20511;-76
2022/09/09 09:20:58;;;;;;;7.43;5.70;;;;;;;;;;5057323;28;20602;-76
2022/09/09 09:23:30;;;;;;;7.03;5.80;;;;;;;;;;5074840;28;20439;-76
2022/09/09 09:25:59;;;;;;;5.67;5.17;;;;;;;;;;5074196;28;20433;-76
2022/09/09 09:28:29;;;;;;;6.10;5.30;;;;;;;;;;5074250;28;20433;-75
2022/09/09 09:31:03;;;;;;;4.93;4.43;;;;;;;;;;5067190;28;20526;-75
2022/09/09 09:33:32;;;;;;;6.37;5.77;;;;;;;;;;5083645;28;20436;-75
2022/09/09 09:35:59;;;;;;;4.83;4.43;;;;;;;;;;5077725;28;21054;-75
2022/09/09 09:38:28;;;;;;;4.47;4.07;;;;;;;;;;5075225;28;20436;-76
2022/09/09 09:41:14;;;;;;;6.90;3.80;;;;;;;;;;5072734;28;20459;-76
2022/09/09 09:43:44;;;;;;;4.10;3.70;;;;;;;;;;5074687;28;20494;-76
2022/09/09 09:46:26;;;;;;;4.00;3.27;;;;;;;;;;5086535;28;20484;-76
2022/09/09 09:49:05;;;;;;;5.67;3.80;;;;;;;;;;5089184;28;20861;-76
2022/09/09 09:51:33;;;;;;;5.23;4.50;;;;;;;;;;5062268;28;20464;-76
2022/09/09 09:54:22;;;;;;;7.10;4.80;;;;;;;;;;5073393;28;20443;-75
2022/09/09 09:56:53;;;;;;;5.93;5.43;;;;;;;;;;5076155;28;20440;-76
2022/09/09 09:59:21;;;;;;;5.33;4.40;;;;;;;;;;5065776;28;21055;-76
2022/09/09 10:02:15;;;;;;;4.93;4.23;;;;;;;;;;5061713;28;20948;-77
2022/09/09 10:04:42;;;;;;;4.90;4.50;;;;;;;;;;5068140;28;20801;-76
2022/09/09 10:07:16;;;;;;;5.53;4.27;;;;;;;;;;5078123;28;20480;-77
2022/09/09 10:09:42;;;;;;;4.00;3.70;;;;;;;;;;5075418;28;20428;-76
2022/09/09 10:12:25;;;;;;;8.63;3.67;;;;;;;;;;5074716;28;20432;-77
2022/09/09 10:15:05;;;;;;;3.97;3.20;;;;;;;;;;5083586;28;20441;-77
2022/09/09 10:17:39;;;;;;;2.80;2.20;;;;;;;;;;5057533;28;20441;-77
2022/09/09 10:20:27;;;;;;;4.33;2.73;;;;;;;;;;5068230;28;20464;-76
2022/09/09 10:23:30;;;;;;;3.83;2.20;;;;;;;;;;5059985;28;20968;-75
2022/09/09 10:26:00;;;;;;;2.90;2.40;;;;;;;;;;4992316;28;20527;-76
2022/09/09 10:28:33;;;;;;;4.67;1.80;;;;;;;;;;5047855;28;20428;-76
2022/09/09 10:31:05;;;;;;;4.77;2.40;;;;;;;;;;5074204;28;20441;-76
2022/09/09 10:33:49;;;;;;;3.97;2.37;;;;;;;;;;5074021;28;20466;-75
2022/09/09 10:36:19;;;;;;;4.00;2.57;;;;;;;;;;5089848;28;20436;-75
2022/09/09 10:38:46;;;;;;;2.27;1.73;;;;;;;;;;5077432;28;20438;-76
2022/09/09 10:41:16;;;;;;;2.13;1.70;;;;;;;;;;5078367;28;20475;-76
2022/09/09 10:43:56;;;;;;;2.70;2.50;;;;;;;;;;5052356;28;20472;-76
2022/09/09 10:46:52;;;;;;;3.73;3.43;;;;;;;;;;5072832;28;20432;-76
2022/09/09 10:49:33;;;;;;;3.93;3.20;;;;;;;;;;5020470;28;20437;-76
2022/09/09 10:52:18;;;;;;;3.80;3.20;;;;;;;;;;5073092;28;20442;-76
2022/09/09 10:54:44;;;;;;;4.30;3.00;;;;;;;;;;5072833;28;20515;-76
2022/09/09 10:57:16;;;;;;;4.07;3.17;;;;;;;;;;5072987;28;20487;-76
2022/09/09 10:59:47;;;;;;;3.83;3.53;;;;;;;;;;5059513;28;20456;-77
2022/09/09 11:02:15;;;;;;;3.10;2.80;;;;;;;;;;5054955;28;20444;-77
2022/09/09 11:04:44;;;;;;;2.80;2.30;;;;;;;;;;5054735;28;20445;-75
2022/09/09 11:07:18;;;;;;;7.73;3.50;;;;;;;;;;5054702;28;20445;-77
2022/09/09 11:09:48;;;;;;;3.10;2.90;;;;;;;;;;5074017;28;20963;-76
2022/09/09 11:12:18;;;;;;;3.50;2.53;;;;;;;;;;5072360;28;20436;-77
2022/09/09 11:14:57;;;;;;;3.90;2.53;;;;;;;;;;5063805;28;20503;-75
2022/09/09 11:17:27;;;;;;;5.13;3.53;;;;;;;;;;5079098;28;20419;-76
2022/09/09 11:19:54;;;;;;;3.00;2.80;;;;;;;;;;5093075;28;20997;-75
2022/09/09 11:22:30;;;;;;;3.97;3.57;;;;;;;;;;5078925;28;20428;-75
2022/09/09 11:24:56;;;;;;;8.80;2.87;;;;;;;;;;5091910;28;20477;-75
2022/09/09 11:27:24;;;;;;;3.60;2.80;;;;;;;;;;5074957;28;20419;-76
2022/09/09 11:29:52;;;;;;;5.30;3.07;;;;;;;;;;5078123;28;20841;-76
2022/09/09 11:32:18;;;;;;;4.60;2.30;;;;;;;;;;5054937;28;20444;-77
2022/09/09 11:34:51;;;;;;;2.50;2.30;;;;;;;;;;5085106;28;20997;-76
2022/09/09 11:37:30;;;;;;;3.07;2.87;;;;;;;;;;5071179;28;20405;-76
2022/09/09 11:40:08;;;;;;;3.00;2.43;;;;;;;;;;5063967;28;20476;-75
2022/09/09 11:42:35;;;;;;;4.57;2.47;;;;;;;;;;5083887;28;20428;-75
2022/09/09 11:45:11;;;;;;;3.40;2.40;;;;;;;;;;5065397;28;20429;-74
2022/09/09 11:47:37;;;;;;;4.07;3.00;;;;;;;;;;5085094;28;20423;-75
2022/09/09 11:50:27;;;;;;;2.80;2.00;;;;;;;;;;5081010;28;21049;-75
2022/09/09 11:53:04;;;;;;;2.43;1.80;;;;;;;;;;5085172;28;20965;-75
2022/09/09 11:55:36;;;;;;;2.13;2.03;;;;;;;;;;5080908;28;20420;-75
2022/09/09 11:58:04;;;;;;;7.57;1.87;;;;;;;;;;5072334;28;20788;-75
2022/09/09 12:00:52;;;;;;;3.20;2.00;;;;;;;;;;5071799;28;20657;-77
2022/09/09 12:03:31;;;;;;;2.33;1.77;;;;;;;;;;5043248;28;20421;-75
2022/09/09 12:05:58;;;;;;;2.50;1.67;;;;;;;;;;5071214;28;20420;-77
2022/09/09 12:08:27;;;;;;;1.67;1.47;;;;;;;;;;5080846;28;20440;-76
2022/09/09 12:10:59;;;;;;;1.83;1.70;;;;;;;;;;5070872;28;20476;-76
2022/09/09 12:13:26;;;;;;;2.67;1.63;;;;;;;;;;5080470;28;20502;-74
2022/09/09 12:15:53;;;;;;;1.40;1.20;;;;;;;;;;5072174;28;20433;-74
2022/09/09 12:18:33;;;;;;;5.30;1.40;;;;;;;;;;5070787;28;20421;-75
2022/09/09 12:21:12;;;;;;;1.70;1.60;;;;;;;;;;5070610;28;20518;-75
2022/09/09 12:23:38;;;;;;;3.13;1.63;;;;;;;;;;5086575;28;20438;-75
2022/09/09 12:26:14;;;;;;;3.13;1.87;;;;;;;;;;5081819;28;20420;-77
2022/09/09 12:29:06;;;;;;;1.70;1.33;;;;;;;;;;5058733;28;20485;-77
2022/09/09 12:31:36;;;;;;;2.00;1.80;;;;;;;;;;5078219;28;20448;-76
2022/09/09 12:34:30;;;;;;;1.80;1.60;;;;;;;;;;5066157;28;20456;-77
2022/09/09 12:37:26;;;;;;;1.87;1.67;;;;;;;;;;5069395;28;20535;-77
2022/09/09 12:39:57;;;;;;;1.60;1.50;;;;;;;;;;5075117;28;20471;-76
2022/09/09 12:42:24;;;;;;;6.80;1.70;;;;;;;;;;5091222;28;21216;-76
2022/09/09 12:45:00;;;;;;;1.27;1.13;;;;;;;;;;5076901;28;20447;-76
2022/09/09 12:47:36;;;;;;;1.60;1.30;;;;;;;;;;5078911;28;20412;-76
2022/09/09 12:50:02;;;;;;;2.43;1.57;;;;;;;;;;5083630;28;20479;-76
2022/09/09 12:52:32;;;;;;;2.80;1.40;;;;;;;;;;5083469;28;20446;-76
2022/09/09 12:54:59;;;;;;;2.03;1.57;;;;;;;;;;5063515;28;20450;-76
2022/09/09 12:57:34;;;;;;;2.23;1.67;;;;;;;;;;5090093;28;20510;-75
2022/09/09 13:00:05;;;;;;;3.83;2.10;;;;;;;;;;5070112;28;20546;-74
2022/09/09 13:02:32;;;;;;;4.03;2.23;;;;;;;;;;5071525;28;20464;-74
2022/09/09 13:05:06;;;;;;;4.50;1.70;;;;;;;;;;5069874;28;20489;-76
2022/09/09 13:07:32;;;;;;;2.03;1.80;;;;;;;;;;5085319;28;20515;-76
2022/09/09 13:09:59;;;;;;;2.73;1.60;;;;;;;;;;5076777;28;20441;-75
2022/09/09 13:12:25;;;;;;;2.80;1.73;;;;;;;;;;5068885;28;20447;-74
2022/09/09 13:14:53;;;;;;;2.70;1.60;;;;;;;;;;5081416;28;20925;-75
2022/09/09 13:17:24;;;;;;;3.87;2.10;;;;;;;;;;5093474;28;20419;-75
2022/09/09 13:19:52;;;;;;;2.93;2.00;;;;;;;;;;5082542;28;20486;-75
2022/09/09 13:22:21;;;;;;;2.80;1.87;;;;;;;;;;5072816;28;20437;-76
2022/09/09 13:24:58;;;;;;;5.43;1.40;;;;;;;;;;5073452;28;20478;-75
2022/09/09 13:27:38;;;;;;;3.60;1.90;;;;;;;;;;5075759;28;20531;-76
2022/09/09 13:30:25;;;;;;;2.43;1.80;;;;;;;;;;5072846;28;20448;-74
2022/09/09 13:33:02;;;;;;;2.67;1.63;;;;;;;;;;5081117;28;20955;-76
2022/09/09 13:35:29;;;;;;;5.87;2.00;;;;;;;;;;5068086;28;20437;-75
2022/09/09 13:37:56;;;;;;;3.20;1.37;;;;;;;;;;5077100;28;20427;-74
2022/09/09 13:40:23;;;;;;;2.63;1.67;;;;;;;;;;5089613;28;20479;-74
2022/09/09 13:42:57;;;;;;;1.60;1.20;;;;;;;;;;5087310;28;20439;-74
2022/09/09 13:45:26;;;;;;;3.40;2.17;;;;;;;;;;5077295;28;20431;-75
2022/09/09 13:47:55;;;;;;;2.50;1.20;;;;;;;;;;5086510;28;20416;-74
2022/09/09 13:50:25;;;;;;;2.30;1.63;;;;;;;;;;5094903;28;20453;-75
2022/09/09 13:52:53;;;;;;;3.17;1.57;;;;;;;;;;5088724;28;20455;-76
2022/09/09 13:55:21;;;;;;;4.20;1.37;;;;;;;;;;5082462;28;20435;-75
2022/09/09 13:57:52;;;;;;;1.50;1.37;;;;;;;;;;5087321;28;20423;-74
2022/09/09 14:00:23;;;;;;;2.73;1.47;;;;;;;;;;5082974;28;20475;-74
2022/09/09 14:02:51;;;;;;;1.70;1.30;;;;;;;;;;5073037;28;20436;-74
2022/09/09 14:05:18;;;;;;;4.00;2.00;;;;;;;;;;5074761;28;20417;-74
2022/09/09 14:07:46;;;;;;;2.10;1.20;;;;;;;;;;5067630;28;20428;-74
2022/09/09 14:10:22;;;;;;;1.97;1.20;;;;;;;;;;5082640;28;20473;-74
2022/09/09 14:12:48;;;;;;;2.90;1.10;;;;;;;;;;5097675;28;20431;-74
2022/09/09 14:15:15;;;;;;;1.87;1.10;;;;;;;;;;5080392;28;20821;-74
2022/09/09 14:17:42;;;;;;;2.50;1.37;;;;;;;;;;5054515;28;20447;-75
2022/09/09 14:20:11;;;;;;;3.00;1.50;;;;;;;;;;5054199;28;20461;-75
2022/09/09 14:22:39;;;;;;;1.13;1.03;;;;;;;;;;5086050;28;21047;-74
2022/09/09 14:25:05;;;;;;;4.70;1.10;;;;;;;;;;5086933;28;20477;-74
2022/09/09 14:27:32;;;;;;;3.50;1.20;;;;;;;;;;5086960;28;20416;-74
2022/09/09 14:30:00;;;;;;;5.40;1.93;;;;;;;;;;5074124;28;20456;-74
2022/09/09 14:32:27;;;;;;;1.30;1.20;;;;;;;;;;5072709;28;20502;-74
2022/09/09 14:34:53;;;;;;;2.03;1.47;;;;;;;;;;5074041;28;20432;-74
2022/09/09 14:37:20;;;;;;;2.67;1.40;;;;;;;;;;5073892;28;20797;-74
2022/09/09 14:39:47;;;;;;;1.03;0.90;;;;;;;;;;5089092;28;20424;-74
2022/09/09 14:42:13;;;;;;;1.10;0.90;;;;;;;;;;5072487;28;20479;-76
2022/09/09 14:44:40;;;;;;;3.37;1.40;;;;;;;;;;5074508;28;20948;-76
2022/09/09 14:47:07;;;;;;;2.50;1.23;;;;;;;;;;5074228;28;20417;-74
2022/09/09 14:49:34;;;;;;;3.83;1.43;;;;;;;;;;5053863;28;20444;-74
2022/09/09 14:52:01;;;;;;;3.13;1.40;;;;;;;;;;5072267;28;20482;-74
2022/09/09 14:54:28;;;;;;;1.60;1.50;;;;;;;;;;5073846;28;20526;-74
2022/09/09 14:56:54;;;;;;;2.17;1.30;;;;;;;;;;5072233;28;20436;-74
2022/09/09 14:59:22;;;;;;;3.67;1.50;;;;;;;;;;5073690;28;20941;-75